sensor_id;sensor_type;location;lat;lon;timestamp;pressure;altitude;pressure_sealevel;temperature;humidity
83836;BME280;73859;40.830;43.828;2024-01-15T00:01:30;83927.41;;;-7.91;57.08
83836;BME280;73859;40.830;43.828;2024-01-15T00:03:59;83930.81;;;-7.98;56.50
83836;BME280;73859;40.830;43.828;2024-01-15T00:06:26;83927.50;;;-8.07;57.88
83836;BME280;73859;40.830;43.828;2024-01-15T00:08:55;83925.91;;;-8.14;57.28
83836;BME280;73859;40.830;43.828;2024-01-15T00:11:25;83916.97;;;-8.15;57.02
83836;BME280;73859;40.830;43.828;2024-01-15T00:13:53;83918.28;;;-8.10;58.04
83836;BME280;73859;40.830;43.828;2024-01-15T00:16:20;83922.59;;;-8.11;58.01
83836;BME280;73859;40.830;43.828;2024-01-15T00:18:47;83930.84;;;-8.10;57.78
83836;BME280;73859;40.830;43.828;2024-01-15T00:21:15;83923.00;;;-8.12;58.07
83836;BME280;73859;40.830;43.828;2024-01-15T00:23:43;83810.69;;;-8.89;57.85
83836;BME280;73859;40.830;43.828;2024-01-15T00:26:13;83852.53;;;-8.52;57.76
83836;BME280;73859;40.830;43.828;2024-01-15T00:28:41;83905.75;;;-8.10;57.65
83836;BME280;73859;40.830;43.828;2024-01-15T00:31:08;83909.78;;;-8.13;58.17
83836;BME280;73859;40.830;43.828;2024-01-15T00:33:36;83905.53;;;-8.16;57.97
83836;BME280;73859;40.830;43.828;2024-01-15T00:36:04;83892.53;;;-8.23;58.17
83836;BME280;73859;40.830;43.828;2024-01-15T00:38:32;83903.03;;;-8.16;58.34
83836;BME280;73859;40.830;43.828;2024-01-15T00:40:59;83892.00;;;-8.18;58.38
83836;BME280;73859;40.830;43.828;2024-01-15T00:43:27;83810.47;;;-8.82;58.29
83836;BME280;73859;40.830;43.828;2024-01-15T00:45:54;83890.03;;;-8.23;58.27
83836;BME280;73859;40.830;43.828;2024-01-15T00:48:22;83862.34;;;-8.45;57.99
83836;BME280;73859;40.830;43.828;2024-01-15T00:50:49;83893.91;;;-8.22;58.04
83836;BME280;73859;40.830;43.828;2024-01-15T00:53:17;83895.22;;;-8.18;57.55
83836;BME280;73859;40.830;43.828;2024-01-15T00:55:44;83747.06;;;-9.17;57.44
83836;BME280;73859;40.830;43.828;2024-01-15T00:58:12;83890.97;;;-8.08;57.23
83836;BME280;73859;40.830;43.828;2024-01-15T01:00:39;83885.47;;;-8.16;56.94
83836;BME280;73859;40.830;43.828;2024-01-15T01:03:07;83798.63;;;-8.69;57.26
83836;BME280;73859;40.830;43.828;2024-01-15T01:05:35;83832.09;;;-8.51;57.65
83836;BME280;73859;40.830;43.828;2024-01-15T01:08:02;83883.56;;;-7.99;57.53
83836;BME280;73859;40.830;43.828;2024-01-15T01:10:30;83884.44;;;-7.93;57.68
83836;BME280;73859;40.830;43.828;2024-01-15T01:12:57;83879.78;;;-7.82;57.10
83836;BME280;73859;40.830;43.828;2024-01-15T01:15:25;83891.72;;;-7.73;56.08
83836;BME280;73859;40.830;43.828;2024-01-15T01:17:52;83889.91;;;-7.73;55.57
83836;BME280;73859;40.830;43.828;2024-01-15T01:20:20;83895.50;;;-8.03;54.90
83836;BME280;73859;40.830;43.828;2024-01-15T01:22:47;83885.03;;;-8.36;54.39
83836;BME280;73859;40.830;43.828;2024-01-15T01:25:15;83888.53;;;-8.59;55.01
83836;BME280;73859;40.830;43.828;2024-01-15T01:27:43;83891.75;;;-8.71;56.86
83836;BME280;73859;40.830;43.828;2024-01-15T01:30:10;83896.56;;;-8.76;56.93
83836;BME280;73859;40.830;43.828;2024-01-15T01:32:38;83836.50;;;-9.18;57.19
83836;BME280;73859;40.830;43.828;2024-01-15T01:35:05;83893.94;;;-8.73;57.14
83836;BME280;73859;40.830;43.828;2024-01-15T01:37:33;83902.97;;;-8.75;57.52
83836;BME280;73859;40.830;43.828;2024-01-15T01:40:01;83907.88;;;-8.84;57.82
83836;BME280;73859;40.830;43.828;2024-01-15T01:42:28;83888.72;;;-8.91;57.48
83836;BME280;73859;40.830;43.828;2024-01-15T01:44:56;83892.94;;;-8.88;58.37
83836;BME280;73859;40.830;43.828;2024-01-15T01:47:23;83803.59;;;-9.58;58.22
83836;BME280;73859;40.830;43.828;2024-01-15T01:49:54;83908.47;;;-8.80;58.07
83836;BME280;73859;40.830;43.828;2024-01-15T01:52:22;83907.28;;;-8.76;58.47
83836;BME280;73859;40.830;43.828;2024-01-15T01:54:49;83902.38;;;-8.67;58.26
83836;BME280;73859;40.830;43.828;2024-01-15T01:57:18;83898.28;;;-8.61;57.87
83836;BME280;73859;40.830;43.828;2024-01-15T01:59:47;83901.06;;;-8.59;57.75
83836;BME280;73859;40.830;43.828;2024-01-15T02:02:15;83896.88;;;-8.62;57.76
83836;BME280;73859;40.830;43.828;2024-01-15T02:04:43;83897.56;;;-8.61;58.75
83836;BME280;73859;40.830;43.828;2024-01-15T02:07:11;83900.06;;;-8.61;57.85
83836;BME280;73859;40.830;43.828;2024-01-15T02:09:39;83901.28;;;-8.53;58.11
83836;BME280;73859;40.830;43.828;2024-01-15T02:12:07;83894.56;;;-8.43;58.21
83836;BME280;73859;40.830;43.828;2024-01-15T02:14:34;83890.47;;;-8.50;57.90
83836;BME280;73859;40.830;43.828;2024-01-15T02:17:02;83898.38;;;-8.39;58.09
83836;BME280;73859;40.830;43.828;2024-01-15T02:19:29;83891.25;;;-8.40;57.75
83836;BME280;73859;40.830;43.828;2024-01-15T02:21:57;83891.25;;;-8.40;57.31
83836;BME280;73859;40.830;43.828;2024-01-15T02:24:25;83895.44;;;-8.37;58.79
83836;BME280;73859;40.830;43.828;2024-01-15T02:26:52;83895.56;;;-8.41;58.60
83836;BME280;73859;40.830;43.828;2024-01-15T02:29:20;83888.13;;;-8.45;58.54
83836;BME280;73859;40.830;43.828;2024-01-15T02:31:47;83892.25;;;-8.38;57.62
83836;BME280;73859;40.830;43.828;2024-01-15T02:34:15;83882.13;;;-8.47;57.80
83836;BME280;73859;40.830;43.828;2024-01-15T02:36:43;83904.69;;;-8.34;57.73
83836;BME280;73859;40.830;43.828;2024-01-15T02:39:10;83898.47;;;-8.42;57.80
83836;BME280;73859;40.830;43.828;2024-01-15T02:41:38;83915.50;;;-8.37;57.44
83836;BME280;73859;40.830;43.828;2024-01-15T02:44:05;83900.78;;;-8.48;57.59
83836;BME280;73859;40.830;43.828;2024-01-15T02:46:33;83903.88;;;-8.44;57.89
83836;BME280;73859;40.830;43.828;2024-01-15T02:49:00;83916.31;;;-8.40;57.89
83836;BME280;73859;40.830;43.828;2024-01-15T02:51:27;83820.59;;;-9.11;57.75
83836;BME280;73859;40.830;43.828;2024-01-15T02:53:55;83862.69;;;-8.81;57.74
83836;BME280;73859;40.830;43.828;2024-01-15T02:56:23;83921.66;;;-8.38;58.04
83836;BME280;73859;40.830;43.828;2024-01-15T02:58:50;83930.88;;;-8.35;57.85
83836;BME280;73859;40.830;43.828;2024-01-15T03:01:20;83925.03;;;-8.32;57.70
83836;BME280;73859;40.830;43.828;2024-01-15T03:03:49;83924.44;;;-8.36;57.59
83836;BME280;73859;40.830;43.828;2024-01-15T03:06:17;83920.41;;;-8.34;57.22
83836;BME280;73859;40.830;43.828;2024-01-15T03:08:44;83819.88;;;-9.12;57.61
83836;BME280;73859;40.830;43.828;2024-01-15T03:11:12;83918.63;;;-8.33;57.19
83836;BME280;73859;40.830;43.828;2024-01-15T03:13:39;83808.25;;;-9.06;57.37
83836;BME280;73859;40.830;43.828;2024-01-15T03:16:06;83923.72;;;-8.24;57.29
83836;BME280;73859;40.830;43.828;2024-01-15T03:18:34;83928.22;;;-8.19;57.61
83836;BME280;73859;40.830;43.828;2024-01-15T03:21:02;83925.91;;;-8.14;56.87
83836;BME280;73859;40.830;43.828;2024-01-15T03:23:29;83931.81;;;-8.08;56.74
83836;BME280;73859;40.830;43.828;2024-01-15T03:25:57;83928.72;;;-8.12;57.35
83836;BME280;73859;40.830;43.828;2024-01-15T03:28:24;83938.47;;;-8.14;56.95
83836;BME280;73859;40.830;43.828;2024-01-15T03:30:51;83937.47;;;-8.16;56.31
83836;BME280;73859;40.830;43.828;2024-01-15T03:33:19;83903.28;;;-8.48;56.79
83836;BME280;73859;40.830;43.828;2024-01-15T03:35:47;83954.59;;;-8.15;56.58
83836;BME280;73859;40.830;43.828;2024-01-15T03:38:14;83955.31;;;-8.14;57.27
83836;BME280;73859;40.830;43.828;2024-01-15T03:40:41;83963.53;;;-8.14;57.71
83836;BME280;73859;40.830;43.828;2024-01-15T03:43:09;83909.19;;;-8.55;57.58
83836;BME280;73859;40.830;43.828;2024-01-15T03:45:37;83966.16;;;-8.17;56.51
83836;BME280;73859;40.830;43.828;2024-01-15T03:48:04;83962.03;;;-8.24;56.41
83836;BME280;73859;40.830;43.828;2024-01-15T03:50:32;83964.13;;;-8.22;55.99
83836;BME280;73859;40.830;43.828;2024-01-15T03:53:00;83975.56;;;-8.21;56.47
83836;BME280;73859;40.830;43.828;2024-01-15T03:55:27;83970.28;;;-8.23;56.42
83836;BME280;73859;40.830;43.828;2024-01-15T03:57:55;83971.28;;;-8.21;56.25
83836;BME280;73859;40.830;43.828;2024-01-15T04:00:25;83969.06;;;-8.19;55.61
83836;BME280;73859;40.830;43.828;2024-01-15T04:02:52;83838.41;;;-9.22;56.54
83836;BME280;73859;40.830;43.828;2024-01-15T04:05:21;83871.69;;;-9.09;56.04
83836;BME280;73859;40.830;43.828;2024-01-15T04:07:48;83973.69;;;-8.42;57.01
83836;BME280;73859;40.830;43.828;2024-01-15T04:10:16;83929.72;;;-8.85;56.92
83836;BME280;73859;40.830;43.828;2024-01-15T04:12:43;83973.75;;;-8.71;57.29
83836;BME280;73859;40.830;43.828;2024-01-15T04:15:13;83986.06;;;-8.77;57.23
83836;BME280;73859;40.830;43.828;2024-01-15T04:17:41;83986.84;;;-8.80;58.03
83836;BME280;73859;40.830;43.828;2024-01-15T04:20:09;83924.81;;;-9.30;57.33
83836;BME280;73859;40.830;43.828;2024-01-15T04:22:36;83994.09;;;-8.82;59.18
83836;BME280;73859;40.830;43.828;2024-01-15T04:25:04;83997.34;;;-8.85;60.23
83836;BME280;73859;40.830;43.828;2024-01-15T04:27:32;84014.25;;;-8.73;59.62
83836;BME280;73859;40.830;43.828;2024-01-15T04:30:00;84009.84;;;-8.69;58.45
83836;BME280;73859;40.830;43.828;2024-01-15T04:32:27;84009.44;;;-8.67;58.36
83836;BME280;73859;40.830;43.828;2024-01-15T04:34:58;84019.03;;;-8.78;58.41
83836;BME280;73859;40.830;43.828;2024-01-15T04:37:25;84018.34;;;-8.79;58.96
83836;BME280;73859;40.830;43.828;2024-01-15T04:39:52;84027.19;;;-8.74;59.24
83836;BME280;73859;40.830;43.828;2024-01-15T04:42:22;84022.38;;;-8.69;59.60
83836;BME280;73859;40.830;43.828;2024-01-15T04:44:49;84024.16;;;-8.69;59.71
83836;BME280;73859;40.830;43.828;2024-01-15T04:47:17;84028.91;;;-8.59;58.98
83836;BME280;73859;40.830;43.828;2024-01-15T04:49:44;83937.34;;;-9.17;58.89
83836;BME280;73859;40.830;43.828;2024-01-15T04:52:12;84031.34;;;-8.42;58.71
83836;BME280;73859;40.830;43.828;2024-01-15T04:54:39;83986.66;;;-8.73;58.02
83836;BME280;73859;40.830;43.828;2024-01-15T04:57:07;83955.69;;;-8.79;58.80
83836;BME280;73859;40.830;43.828;2024-01-15T04:59:34;84025.97;;;-8.28;58.67
83836;BME280;73859;40.830;43.828;2024-01-15T05:02:02;84042.09;;;-8.17;58.25
83836;BME280;73859;40.830;43.828;2024-01-15T05:04:29;84047.13;;;-8.17;58.63
83836;BME280;73859;40.830;43.828;2024-01-15T05:06:57;84064.06;;;-8.08;58.42
83836;BME280;73859;40.830;43.828;2024-01-15T05:09:25;84076.13;;;-8.03;58.87
83836;BME280;73859;40.830;43.828;2024-01-15T05:11:54;84070.63;;;-7.98;57.96
83836;BME280;73859;40.830;43.828;2024-01-15T05:14:22;84069.22;;;-7.99;58.00
83836;BME280;73859;40.830;43.828;2024-01-15T05:16:49;84078.66;;;-7.90;58.47
83836;BME280;73859;40.830;43.828;2024-01-15T05:19:18;84080.47;;;-7.78;58.28
83836;BME280;73859;40.830;43.828;2024-01-15T05:21:45;84087.91;;;-7.62;57.73
83836;BME280;73859;40.830;43.828;2024-01-15T05:24:13;83991.25;;;-8.17;57.78
83836;BME280;73859;40.830;43.828;2024-01-15T05:26:41;84101.28;;;-7.40;57.64
83836;BME280;73859;40.830;43.828;2024-01-15T05:29:08;84099.84;;;-7.28;57.75
83836;BME280;73859;40.830;43.828;2024-01-15T05:31:36;84074.81;;;-7.19;57.84
83836;BME280;73859;40.830;43.828;2024-01-15T05:34:03;84063.56;;;-7.15;57.88
83836;BME280;73859;40.830;43.828;2024-01-15T05:36:31;84083.50;;;-6.86;57.64
83836;BME280;73859;40.830;43.828;2024-01-15T05:38:59;84091.31;;;-6.71;56.85
83836;BME280;73859;40.830;43.828;2024-01-15T05:41:26;84094.44;;;-6.67;56.54
83836;BME280;73859;40.830;43.828;2024-01-15T05:58:29;84098.97;;;-5.35;54.56
83836;BME280;73859;40.830;43.828;2024-01-15T06:00:56;84104.91;;;-5.20;54.49
83836;BME280;73859;40.830;43.828;2024-01-15T06:03:24;84087.19;;;-5.08;54.74
83836;BME280;73859;40.830;43.828;2024-01-15T06:05:51;84080.78;;;-4.90;54.24
83836;BME280;73859;40.830;43.828;2024-01-15T06:08:19;84079.53;;;-4.77;53.92
83836;BME280;73859;40.830;43.828;2024-01-15T06:10:48;84067.06;;;-4.80;53.58
83836;BME280;73859;40.830;43.828;2024-01-15T06:13:15;84097.66;;;-4.60;53.46
83836;BME280;73859;40.830;43.828;2024-01-15T06:15:43;83966.94;;;-5.47;53.46
83836;BME280;73859;40.830;43.828;2024-01-15T06:18:13;84113.22;;;-4.43;53.22
83836;BME280;73859;40.830;43.828;2024-01-15T06:20:41;84093.03;;;-4.53;53.57
83836;BME280;73859;40.830;43.828;2024-01-15T06:23:08;84126.84;;;-4.41;53.43
83836;BME280;73859;40.830;43.828;2024-01-15T06:25:36;84104.34;;;-4.75;52.82
83836;BME280;73859;40.830;43.828;2024-01-15T06:28:03;84130.53;;;-4.82;53.49
83836;BME280;73859;40.830;43.828;2024-01-15T06:30:32;84128.81;;;-5.03;53.65
83836;BME280;73859;40.830;43.828;2024-01-15T06:33:00;84042.97;;;-5.79;53.30
83836;BME280;73859;40.830;43.828;2024-01-15T06:35:27;84111.88;;;-5.33;54.50
83836;BME280;73859;40.830;43.828;2024-01-15T06:37:55;84127.38;;;-5.04;54.00
83836;BME280;73859;40.830;43.828;2024-01-15T06:40:22;84143.16;;;-4.82;54.13
83836;BME280;73859;40.830;43.828;2024-01-15T06:42:49;84139.13;;;-4.61;53.16
83836;BME280;73859;40.830;43.828;2024-01-15T06:45:17;84143.81;;;-4.41;53.07
83836;BME280;73859;40.830;43.828;2024-01-15T06:47:45;84131.19;;;-4.32;52.50
83836;BME280;73859;40.830;43.828;2024-01-15T06:50:12;84099.78;;;-4.31;52.15
83836;BME280;73859;40.830;43.828;2024-01-15T06:52:39;84124.78;;;-3.88;51.61
83836;BME280;73859;40.830;43.828;2024-01-15T06:55:07;84117.19;;;-3.70;51.83
83836;BME280;73859;40.830;43.828;2024-01-15T06:57:35;84131.19;;;-3.51;51.28
83836;BME280;73859;40.830;43.828;2024-01-15T07:00:03;84127.66;;;-3.44;51.24
83836;BME280;73859;40.830;43.828;2024-01-15T07:02:35;83994.91;;;-4.41;51.54
83836;BME280;73859;40.830;43.828;2024-01-15T07:05:02;84045.22;;;-4.02;51.61
83836;BME280;73859;40.830;43.828;2024-01-15T07:07:32;84128.09;;;-3.36;52.21
83836;BME280;73859;40.830;43.828;2024-01-15T07:10:00;84129.75;;;-3.24;52.39
83836;BME280;73859;40.830;43.828;2024-01-15T07:12:27;84117.06;;;-3.15;51.90
83836;BME280;73859;40.830;43.828;2024-01-15T07:14:56;84119.38;;;-2.93;52.56
83836;BME280;73859;40.830;43.828;2024-01-15T07:17:23;84127.03;;;-2.70;51.85
83836;BME280;73859;40.830;43.828;2024-01-15T07:19:50;84128.56;;;-2.63;51.24
83836;BME280;73859;40.830;43.828;2024-01-15T07:22:18;84120.34;;;-2.58;51.74
83836;BME280;73859;40.830;43.828;2024-01-15T07:24:46;84073.50;;;-2.77;51.28
83836;BME280;73859;40.830;43.828;2024-01-15T07:27:14;84088.00;;;-2.54;50.99
83836;BME280;73859;40.830;43.828;2024-01-15T07:29:41;84134.38;;;-2.15;50.69
83836;BME280;73859;40.830;43.828;2024-01-15T07:32:10;84135.72;;;-2.05;50.92
83836;BME280;73859;40.830;43.828;2024-01-15T07:34:37;84134.19;;;-2.12;49.56
83836;BME280;73859;40.830;43.828;2024-01-15T07:37:05;84136.41;;;-2.28;49.14
83836;BME280;73859;40.830;43.828;2024-01-15T07:39:33;84143.13;;;-2.49;49.42
83836;BME280;73859;40.830;43.828;2024-01-15T07:42:01;84117.84;;;-2.58;49.60
83836;BME280;73859;40.830;43.828;2024-01-15T07:44:28;84136.56;;;-2.32;49.95
83836;BME280;73859;40.830;43.828;2024-01-15T07:46:56;84151.56;;;-2.19;49.48
83836;BME280;73859;40.830;43.828;2024-01-15T07:49:23;84142.44;;;-2.02;48.79
83836;BME280;73859;40.830;43.828;2024-01-15T07:51:51;84146.22;;;-1.98;48.57
83836;BME280;73859;40.830;43.828;2024-01-15T07:54:18;84058.94;;;-2.59;47.62
83836;BME280;73859;40.830;43.828;2024-01-15T07:57:15;84137.00;;;-1.86;47.11
83836;BME280;73859;40.830;43.828;2024-01-15T07:59:43;84142.06;;;-1.86;47.97
83836;BME280;73859;40.830;43.828;2024-01-15T08:02:10;84131.09;;;-1.68;48.10
83836;BME280;73859;40.830;43.828;2024-01-15T08:04:38;84128.47;;;-1.59;47.11
83836;BME280;73859;40.830;43.828;2024-01-15T08:07:05;84136.56;;;-1.46;47.43
83836;BME280;73859;40.830;43.828;2024-01-15T08:09:35;84122.34;;;-1.53;46.33
83836;BME280;73859;40.830;43.828;2024-01-15T08:12:02;84016.75;;;-2.23;45.48
83836;BME280;73859;40.830;43.828;2024-01-15T08:14:33;84058.31;;;-1.91;46.68
83836;BME280;73859;40.830;43.828;2024-01-15T08:17:00;84121.50;;;-1.50;46.59
83836;BME280;73859;40.830;43.828;2024-01-15T08:19:29;84065.88;;;-1.82;46.40
83836;BME280;73859;40.830;43.828;2024-01-15T08:21:57;84117.50;;;-1.27;46.68
83836;BME280;73859;40.830;43.828;2024-01-15T08:24:24;84122.13;;;-1.25;46.28
83836;BME280;73859;40.830;43.828;2024-01-15T08:26:51;84117.16;;;-1.20;46.28
83836;BME280;73859;40.830;43.828;2024-01-15T08:29:19;84108.69;;;-1.17;45.98
83836;BME280;73859;40.830;43.828;2024-01-15T08:31:48;84111.72;;;-1.13;45.69
83836;BME280;73859;40.830;43.828;2024-01-15T08:34:19;84117.16;;;-1.20;46.22
83836;BME280;73859;40.830;43.828;2024-01-15T08:36:46;84112.88;;;-1.28;45.17
83836;BME280;73859;40.830;43.828;2024-01-15T08:39:14;84113.41;;;-1.24;46.21
83836;BME280;73859;40.830;43.828;2024-01-15T08:41:41;84014.38;;;-1.74;46.63
83836;BME280;73859;40.830;43.828;2024-01-15T08:44:09;84100.44;;;-0.97;47.00
83836;BME280;73859;40.830;43.828;2024-01-15T08:46:37;84095.00;;;-0.90;47.24
83836;BME280;73859;40.830;43.828;2024-01-15T08:49:04;84044.38;;;-1.14;46.60
83836;BME280;73859;40.830;43.828;2024-01-15T08:51:33;84083.59;;;-0.80;47.23
83836;BME280;73859;40.830;43.828;2024-01-15T08:54:00;83997.81;;;-1.25;47.40
83836;BME280;73859;40.830;43.828;2024-01-15T08:56:29;83961.03;;;-1.50;47.65
83836;BME280;73859;40.830;43.828;2024-01-15T08:58:56;84094.06;;;-0.58;47.85
83836;BME280;73859;40.830;43.828;2024-01-15T09:01:23;84083.47;;;-0.56;47.46
83836;BME280;73859;40.830;43.828;2024-01-15T09:03:51;84087.56;;;-0.44;48.22
83836;BME280;73859;40.830;43.828;2024-01-15T09:06:19;84080.78;;;-0.32;47.93
83836;BME280;73859;40.830;43.828;2024-01-15T09:08:48;84082.88;;;-0.31;48.24
83836;BME280;73859;40.830;43.828;2024-01-15T09:11:15;84075.03;;;-0.33;47.78
83836;BME280;73859;40.830;43.828;2024-01-15T09:13:46;84084.09;;;-0.26;48.07
83836;BME280;73859;40.830;43.828;2024-01-15T09:16:13;84083.91;;;-0.23;47.98
83836;BME280;73859;40.830;43.828;2024-01-15T09:18:41;84074.88;;;-0.24;48.29
83836;BME280;73859;40.830;43.828;2024-01-15T09:21:09;84078.13;;;-0.23;47.95
83836;BME280;73859;40.830;43.828;2024-01-15T09:23:36;83982.28;;;-0.98;47.65
83836;BME280;73859;40.830;43.828;2024-01-15T09:26:04;84083.66;;;-0.25;48.16
83836;BME280;73859;40.830;43.828;2024-01-15T09:28:31;84081.56;;;-0.26;47.90
83836;BME280;73859;40.830;43.828;2024-01-15T09:30:59;84085.56;;;-0.20;48.14
83836;BME280;73859;40.830;43.828;2024-01-15T09:33:26;84074.94;;;-0.18;47.85
83836;BME280;73859;40.830;43.828;2024-01-15T09:35:54;84072.66;;;-0.16;47.89
83836;BME280;73859;40.830;43.828;2024-01-15T09:38:21;84073.69;;;-0.08;47.18
83836;BME280;73859;40.830;43.828;2024-01-15T09:40:49;84055.25;;;-0.23;47.40
83836;BME280;73859;40.830;43.828;2024-01-15T09:43:17;84068.66;;;-0.03;47.26
83836;BME280;73859;40.830;43.828;2024-01-15T09:45:45;84070.63;;;0.08;47.21
83836;BME280;73859;40.830;43.828;2024-01-15T09:48:13;83981.69;;;-0.53;46.89
83836;BME280;73859;40.830;43.828;2024-01-15T09:50:41;84072.03;;;0.81;45.78
83836;BME280;73859;40.830;43.828;2024-01-15T09:53:08;84058.16;;;2.29;43.05
83836;BME280;73859;40.830;43.828;2024-01-15T09:55:37;84043.47;;;3.39;42.24
83836;BME280;73859;40.830;43.828;2024-01-15T09:58:07;83967.91;;;3.71;40.40
83836;BME280;73859;40.830;43.828;2024-01-15T10:00:34;84061.38;;;5.10;39.49
83836;BME280;73859;40.830;43.828;2024-01-15T10:03:09;84048.97;;;5.55;37.59
83836;BME280;73859;40.830;43.828;2024-01-15T10:05:38;84030.31;;;5.84;37.78
83836;BME280;73859;40.830;43.828;2024-01-15T10:08:06;84051.38;;;6.31;39.67
83836;BME280;73859;40.830;43.828;2024-01-15T10:10:36;84052.13;;;6.50;38.74
83836;BME280;73859;40.830;43.828;2024-01-15T10:13:05;83957.63;;;6.00;35.96
83836;BME280;73859;40.830;43.828;2024-01-15T10:15:34;84037.31;;;6.80;38.53
83836;BME280;73859;40.830;43.828;2024-01-15T10:18:04;84051.38;;;7.17;37.93
83836;BME280;73859;40.830;43.828;2024-01-15T10:20:32;84048.44;;;7.26;37.36
83836;BME280;73859;40.830;43.828;2024-01-15T10:23:00;84050.94;;;7.13;33.70
83836;BME280;73859;40.830;43.828;2024-01-15T10:25:27;83992.00;;;6.96;37.13
83836;BME280;73859;40.830;43.828;2024-01-15T10:28:02;84034.69;;;7.87;35.99
83836;BME280;73859;40.830;43.828;2024-01-15T10:30:32;84046.78;;;7.92;33.42
83836;BME280;73859;40.830;43.828;2024-01-15T10:33:01;84035.88;;;7.86;34.71
83836;BME280;73859;40.830;43.828;2024-01-15T10:35:33;84032.47;;;8.10;33.56
83836;BME280;73859;40.830;43.828;2024-01-15T10:38:02;83955.66;;;7.37;34.30
83836;BME280;73859;40.830;43.828;2024-01-15T10:40:32;84031.75;;;7.96;34.02
83836;BME280;73859;40.830;43.828;2024-01-15T10:43:01;84023.72;;;7.36;33.64
83836;BME280;73859;40.830;43.828;2024-01-15T10:45:28;84025.19;;;7.50;34.44
83836;BME280;73859;40.830;43.828;2024-01-15T10:47:56;84025.41;;;7.65;33.47
83836;BME280;73859;40.830;43.828;2024-01-15T10:50:26;84026.97;;;7.87;33.25
83836;BME280;73859;40.830;43.828;2024-01-15T10:52:55;84040.13;;;7.83;32.74
83836;BME280;73859;40.830;43.828;2024-01-15T10:55:24;84038.94;;;7.84;33.44
83836;BME280;73859;40.830;43.828;2024-01-15T10:57:53;84044.56;;;7.51;34.04
83836;BME280;73859;40.830;43.828;2024-01-15T11:00:21;84046.84;;;7.23;35.21
83836;BME280;73859;40.830;43.828;2024-01-15T11:02:48;84039.44;;;7.32;34.50
83836;BME280;73859;40.830;43.828;2024-01-15T11:05:16;83934.94;;;7.16;34.88
83836;BME280;73859;40.830;43.828;2024-01-15T11:07:45;84042.00;;;8.28;33.87
83836;BME280;73859;40.830;43.828;2024-01-15T11:10:43;84048.09;;;8.44;32.16
83836;BME280;73859;40.830;43.828;2024-01-15T11:13:15;84041.84;;;8.78;32.96
83836;BME280;73859;40.830;43.828;2024-01-15T11:16:03;84026.44;;;9.12;30.74
83836;BME280;73859;40.830;43.828;2024-01-15T11:18:35;83961.94;;;9.12;31.40
83836;BME280;73859;40.830;43.828;2024-01-15T11:23:56;84043.16;;;9.45;30.99
83836;BME280;73859;40.830;43.828;2024-01-15T11:29:11;84050.22;;;9.78;30.75
83836;BME280;73859;40.830;43.828;2024-01-15T11:31:58;84050.81;;;9.71;30.89
83836;BME280;73859;40.830;43.828;2024-01-15T11:37:19;84002.56;;;10.08;30.72
83836;BME280;73859;40.830;43.828;2024-01-15T11:39:47;84009.84;;;10.30;30.04
83836;BME280;73859;40.830;43.828;2024-01-15T11:42:15;84055.31;;;10.74;28.46
83836;BME280;73859;40.830;43.828;2024-01-15T11:44:43;84057.78;;;10.39;30.30
83836;BME280;73859;40.830;43.828;2024-01-15T11:47:12;84067.91;;;9.95;29.59
83836;BME280;73859;40.830;43.828;2024-01-15T11:52:26;84069.66;;;10.83;29.87
83836;BME280;73859;40.830;43.828;2024-01-15T11:58:10;84021.56;;;11.23;28.31
83836;BME280;73859;40.830;43.828;2024-01-15T12:00:47;84087.06;;;11.75;28.30
83836;BME280;73859;40.830;43.828;2024-01-15T12:03:15;84001.00;;;10.74;29.30
83836;BME280;73859;40.830;43.828;2024-01-15T12:05:42;84089.06;;;11.61;27.83
83836;BME280;73859;40.830;43.828;2024-01-15T12:08:10;84040.06;;;11.27;29.12
83836;BME280;73859;40.830;43.828;2024-01-15T12:10:39;84087.28;;;11.85;29.27
83836;BME280;73859;40.830;43.828;2024-01-15T12:13:14;84085.59;;;12.10;29.31
83836;BME280;73859;40.830;43.828;2024-01-15T12:15:43;84048.13;;;12.11;28.90
83836;BME280;73859;40.830;43.828;2024-01-15T12:18:13;84086.75;;;12.67;28.70
83836;BME280;73859;40.830;43.828;2024-01-15T12:20:43;84095.22;;;12.60;28.32
83836;BME280;73859;40.830;43.828;2024-01-15T12:23:10;84098.69;;;12.63;28.16
83836;BME280;73859;40.830;43.828;2024-01-15T12:25:39;84083.13;;;12.78;28.76
83836;BME280;73859;40.830;43.828;2024-01-15T12:28:07;84090.03;;;12.60;27.35
83836;BME280;73859;40.830;43.828;2024-01-15T12:30:35;84092.63;;;12.60;25.54
83836;BME280;73859;40.830;43.828;2024-01-15T12:33:05;84078.25;;;12.59;28.65
83836;BME280;73859;40.830;43.828;2024-01-15T12:35:33;84098.50;;;12.68;28.41
83836;BME280;73859;40.830;43.828;2024-01-15T12:38:01;84096.94;;;12.73;28.45
83836;BME280;73859;40.830;43.828;2024-01-15T12:40:35;84092.09;;;12.62;28.37
83836;BME280;73859;40.830;43.828;2024-01-15T12:43:05;83998.47;;;11.84;28.15
83836;BME280;73859;40.830;43.828;2024-01-15T12:45:34;84099.34;;;12.48;28.65
83836;BME280;73859;40.830;43.828;2024-01-15T12:48:04;84109.06;;;12.63;28.48
83836;BME280;73859;40.830;43.828;2024-01-15T12:50:33;84094.53;;;12.60;28.43
83836;BME280;73859;40.830;43.828;2024-01-15T12:53:01;84109.19;;;12.50;28.92
83836;BME280;73859;40.830;43.828;2024-01-15T12:55:29;84079.97;;;12.34;28.43
83836;BME280;73859;40.830;43.828;2024-01-15T12:57:56;84109.72;;;12.41;28.25
83836;BME280;73859;40.830;43.828;2024-01-15T13:00:24;84111.19;;;12.13;29.19
83836;BME280;73859;40.830;43.828;2024-01-15T13:02:54;84103.34;;;11.83;29.14
83836;BME280;73859;40.830;43.828;2024-01-15T13:05:22;84066.97;;;11.24;29.13
83836;BME280;73859;40.830;43.828;2024-01-15T13:07:51;84120.16;;;11.33;29.43
83836;BME280;73859;40.830;43.828;2024-01-15T13:10:18;84116.88;;;11.25;29.32
83836;BME280;73859;40.830;43.828;2024-01-15T13:12:45;84067.13;;;10.62;29.60
83836;BME280;73859;40.830;43.828;2024-01-15T13:15:13;84118.72;;;10.68;29.50
83836;BME280;73859;40.830;43.828;2024-01-15T13:17:42;84118.09;;;10.33;29.30
83836;BME280;73859;40.830;43.828;2024-01-15T13:20:11;84123.88;;;9.93;30.52
83836;BME280;73859;40.830;43.828;2024-01-15T13:22:40;84129.03;;;9.46;30.53
83836;BME280;73859;40.830;43.828;2024-01-15T13:25:12;84101.19;;;9.05;31.40